Time;durP1;ratioP1;P1;durP2;ratioP2;P2;SDS_P1;SDS_P2;PMS_P1;PMS_P2;Temp;Humidity;BMP_temperature;BMP_pressure;BME280_temperature;BME280_humidity;BME280_pressure;Samples;Min_cycle;Max_cycle;Signal;HPM_P1;HPM_P2
2023/01/06 00:01:05;;;;;;;3.60;1.52;;;;;;;;;;5029410;28;20036;-78
2023/01/06 00:03:50;;;;;;;;;;;;;;;;;;5043404;28;20107;-77
2023/01/06 00:06:35;;;;;;;2.03;1.35;;;;;;;;;;5031020;28;20618;-78
2023/01/06 00:09:21;;;;;;;2.25;1.13;;;;;;;;;;5036212;28;20048;-76
2023/01/06 00:12:06;;;;;;;3.78;1.52;;;;;;;;;;5038973;28;20031;-77
2023/01/06 00:14:51;;;;;;;2.17;1.52;;;;;;;;;;5053597;28;20068;-93
2023/01/06 00:17:37;;;;;;;1.42;1.10;;;;;;;;;;5044388;28;20056;-78
2023/01/06 00:20:22;;;;;;;3.50;1.42;;;;;;;;;;5038667;28;20452;-75
2023/01/06 00:23:07;;;;;;;4.10;1.20;;;;;;;;;;5038741;28;20143;-76
2023/01/06 00:25:53;;;;;;;3.85;1.40;;;;;;;;;;5015403;28;20062;-77
2023/01/06 00:28:38;;;;;;;2.65;1.77;;;;;;;;;;5038525;28;20029;-76
2023/01/06 00:31:23;;;;;;;4.20;1.20;;;;;;;;;;5044428;28;20041;-69
2023/01/06 00:34:09;;;;;;;2.95;1.13;;;;;;;;;;5029325;28;20051;-72
2023/01/06 00:36:55;;;;;;;4.38;1.20;;;;;;;;;;5034682;28;20107;-67
2023/01/06 00:39:40;;;;;;;5.88;1.48;;;;;;;;;;5029031;28;20037;-67
2023/01/06 00:42:25;;;;;;;4.70;1.30;;;;;;;;;;5031518;28;20234;-68
2023/01/06 00:45:10;;;;;;;2.78;1.38;;;;;;;;;;5041078;28;20029;-68
2023/01/06 00:47:56;;;;;;;2.92;1.48;;;;;;;;;;5032871;28;20037;-69
2023/01/06 00:50:41;;;;;;;3.45;1.55;;;;;;;;;;5035007;28;20527;-88
2023/01/06 00:53:26;;;;;;;4.40;1.30;;;;;;;;;;5030575;28;20034;-76
2023/01/06 00:56:11;;;;;;;2.72;1.30;;;;;;;;;;5042374;28;20026;-74
2023/01/06 00:58:57;;;;;;;2.25;1.23;;;;;;;;;;5031018;28;20037;-74
2023/01/06 01:01:43;;;;;;;2.47;1.30;;;;;;;;;;5028739;28;20120;-77
2023/01/06 01:04:28;;;;;;;7.68;2.65;;;;;;;;;;5041305;28;20383;-75
2023/01/06 01:07:14;;;;;;;1.77;1.02;;;;;;;;;;5033338;28;20032;-75
2023/01/06 01:09:59;;;;;;;2.55;1.67;;;;;;;;;;5029481;28;20025;-71
2023/01/06 01:12:44;;;;;;;2.92;1.33;;;;;;;;;;5031926;28;20031;-74
2023/01/06 01:15:29;;;;;;;4.00;1.55;;;;;;;;;;5045010;28;20390;-77
2023/01/06 01:18:15;;;;;;;3.05;1.40;;;;;;;;;;5034556;28;20642;-76
2023/01/06 01:21:00;;;;;;;3.60;1.40;;;;;;;;;;5039216;28;20036;-78
2023/01/06 01:23:46;;;;;;;5.40;2.38;;;;;;;;;;5041841;28;20112;-77
2023/01/06 01:26:31;;;;;;;4.38;1.88;;;;;;;;;;5028129;28;20035;-76
2023/01/06 01:29:17;;;;;;;2.90;1.50;;;;;;;;;;5033135;28;20025;-69
2023/01/06 01:32:02;;;;;;;3.63;1.50;;;;;;;;;;5027879;28;20025;-69
2023/01/06 01:34:48;;;;;;;1.48;1.10;;;;;;;;;;5042030;28;20423;-71
2023/01/06 01:37:33;;;;;;;2.63;1.27;;;;;;;;;;5045404;28;20427;-69
2023/01/06 01:40:18;;;;;;;2.45;1.10;;;;;;;;;;5031054;28;20039;-69
2023/01/06 01:43:05;;;;;;;1.45;1.20;;;;;;;;;;5030653;28;20028;-69
2023/01/06 01:45:52;;;;;;;1.92;0.95;;;;;;;;;;5027877;28;20025;-68
2023/01/06 01:48:38;;;;;;;3.47;1.42;;;;;;;;;;5043772;28;20021;-69
2023/01/06 01:51:27;;;;;;;2.03;1.25;;;;;;;;;;5035469;28;20129;-70
2023/01/06 01:54:14;;;;;;;6.25;1.40;;;;;;;;;;5039668;28;20403;-69
2023/01/06 01:57:05;;;;;;;2.22;1.30;;;;;;;;;;5027069;28;20033;-70
2023/01/06 01:59:50;;;;;;;2.83;1.80;;;;;;;;;;5040003;28;20124;-70
2023/01/06 02:02:36;;;;;;;3.53;1.42;;;;;;;;;;5035078;28;20045;-70
2023/01/06 02:05:22;;;;;;;4.00;1.88;;;;;;;;;;5037595;28;20033;-69
2023/01/06 02:08:20;;;;;;;4.65;1.40;;;;;;;;;;5039232;28;20025;-69
2023/01/06 02:11:06;;;;;;;1.70;1.08;;;;;;;;;;5033568;28;20535;-70
2023/01/06 02:13:56;;;;;;;1.52;1.20;;;;;;;;;;5027917;28;20047;-70
2023/01/06 02:16:50;;;;;;;1.42;0.98;;;;;;;;;;5027251;28;20043;-69
2023/01/06 02:19:44;;;;;;;3.25;1.30;;;;;;;;;;5042670;28;20035;-70
2023/01/06 02:22:48;;;;;;;2.67;1.20;;;;;;;;;;5034755;28;20076;-88
2023/01/06 02:25:47;;;;;;;4.05;1.45;;;;;;;;;;5027451;28;20285;-70
2023/01/06 02:28:46;;;;;;;6.73;1.30;;;;;;;;;;5028619;28;20116;-69
2023/01/06 02:31:31;;;;;;;2.27;1.30;;;;;;;;;;5027319;28;20264;-69
2023/01/06 02:34:32;;;;;;;4.53;1.25;;;;;;;;;;5034354;28;20070;-70
2023/01/06 02:37:23;;;;;;;9.15;1.38;;;;;;;;;;5027971;28;20041;-71
2023/01/06 02:40:13;;;;;;;2.67;1.20;;;;;;;;;;5029962;28;20432;-90
2023/01/06 02:43:02;;;;;;;5.28;1.55;;;;;;;;;;5037103;28;20504;-70
2023/01/06 02:45:59;;;;;;;3.30;1.27;;;;;;;;;;5013836;28;20079;-67
2023/01/06 02:49:03;;;;;;;5.03;1.42;;;;;;;;;;5035408;28;20029;-70
2023/01/06 02:51:55;;;;;;;6.00;1.10;;;;;;;;;;5032623;28;20036;-67
2023/01/06 02:54:52;;;;;;;3.30;1.45;;;;;;;;;;5037900;28;20045;-66
2023/01/06 02:57:58;;;;;;;6.18;1.73;;;;;;;;;;5039722;28;20116;-67
2023/01/06 03:00:56;;;;;;;2.17;1.38;;;;;;;;;;5045650;28;20028;-76
2023/01/06 03:03:43;;;;;;;6.50;1.52;;;;;;;;;;5055753;28;20061;-73
2023/01/06 03:06:30;;;;;;;4.07;2.08;;;;;;;;;;5066372;28;20122;-72
2023/01/06 03:09:17;;;;;;;2.08;1.10;;;;;;;;;;5053465;28;20550;-74
2023/01/06 03:12:06;;;;;;;3.60;1.27;;;;;;;;;;5056456;28;20032;-73
2023/01/06 03:14:53;;;;;;;5.10;2.35;;;;;;;;;;5064173;28;20056;-74
2023/01/06 03:17:39;;;;;;;4.55;1.25;;;;;;;;;;5067671;28;20045;-75
2023/01/06 03:20:24;;;;;;;5.07;1.48;;;;;;;;;;5060918;28;20380;-75
2023/01/06 03:23:11;;;;;;;2.13;1.20;;;;;;;;;;5049634;28;20103;-76
2023/01/06 03:25:56;;;;;;;2.95;1.20;;;;;;;;;;5068718;28;20471;-77
2023/01/06 03:28:42;;;;;;;5.40;1.27;;;;;;;;;;5066034;28;20025;-76
2023/01/06 03:31:36;;;;;;;5.22;1.33;;;;;;;;;;5053715;28;20222;-76
2023/01/06 03:34:38;;;;;;;4.70;1.10;;;;;;;;;;5058994;28;20628;-75
2023/01/06 03:37:36;;;;;;;3.30;1.85;;;;;;;;;;5044564;28;20040;-72
2023/01/06 03:40:33;;;;;;;1.52;1.10;;;;;;;;;;5053320;28;20495;-72
2023/01/06 03:43:18;;;;;;;8.82;1.52;;;;;;;;;;5069793;28;20036;-72
2023/01/06 03:46:22;;;;;;;4.75;1.70;;;;;;;;;;5061746;28;20487;-73
2023/01/06 03:49:10;;;;;;;6.53;1.70;;;;;;;;;;5060658;28;20880;-74
2023/01/06 03:51:58;;;;;;;2.33;1.10;;;;;;;;;;5067921;28;20024;-73
2023/01/06 03:54:50;;;;;;;7.00;1.75;;;;;;;;;;5052110;28;20071;-76
2023/01/06 03:57:37;;;;;;;1.35;1.08;;;;;;;;;;5055932;28;20028;-68
2023/01/06 04:00:25;;;;;;;1.23;1.13;;;;;;;;;;5041358;28;20036;-69
2023/01/06 04:03:12;;;;;;;1.90;1.20;;;;;;;;;;5069149;28;20024;-68
2023/01/06 04:05:57;;;;;;;1.45;1.15;;;;;;;;;;5056682;28;20493;-69
2023/01/06 04:08:42;;;;;;;3.33;1.20;;;;;;;;;;5057230;28;20112;-68
2023/01/06 04:14:32;;;;;;;2.90;1.10;;;;;;;;;;5064225;28;20029;-71
2023/01/06 04:17:17;;;;;;;4.95;1.10;;;;;;;;;;5066559;28;20480;-70
2023/01/06 04:20:03;;;;;;;4.22;1.25;;;;;;;;;;5059744;28;20396;-68
2023/01/06 04:22:48;;;;;;;2.75;1.30;;;;;;;;;;5064373;28;20043;-69
2023/01/06 04:25:33;;;;;;;4.82;1.15;;;;;;;;;;5066626;28;20459;-69
2023/01/06 04:28:18;;;;;;;2.28;1.30;;;;;;;;;;5074491;28;20044;-70
2023/01/06 04:31:04;;;;;;;1.60;1.17;;;;;;;;;;5063931;28;20055;-72
2023/01/06 04:33:49;;;;;;;1.52;1.10;;;;;;;;;;5060102;28;20040;-76
2023/01/06 04:36:34;;;;;;;3.17;1.13;;;;;;;;;;5052837;28;20396;-76
2023/01/06 04:39:19;;;;;;;2.67;1.25;;;;;;;;;;5057201;28;20025;-77
2023/01/06 04:42:05;;;;;;;1.77;1.15;;;;;;;;;;5068623;28;20036;-76
2023/01/06 04:44:50;;;;;;;5.00;1.25;;;;;;;;;;5064446;28;20028;-76
2023/01/06 04:47:35;;;;;;;1.80;1.00;;;;;;;;;;5068658;28;20040;-76
2023/01/06 04:50:21;;;;;;;1.65;1.17;;;;;;;;;;5052842;28;20033;-76
2023/01/06 04:53:06;;;;;;;1.80;1.00;;;;;;;;;;5054933;28;20436;-78
2023/01/06 04:55:51;;;;;;;1.75;1.15;;;;;;;;;;5063591;28;20021;-78
2023/01/06 04:58:37;;;;;;;2.30;1.50;;;;;;;;;;5068430;28;20013;-77
2023/01/06 05:01:23;;;;;;;3.65;1.20;;;;;;;;;;5069849;28;20037;-76
2023/01/06 05:04:08;;;;;;;1.55;1.10;;;;;;;;;;5067045;28;20102;-76
2023/01/06 05:06:54;;;;;;;3.58;1.30;;;;;;;;;;5055170;28;20102;-76
2023/01/06 05:09:39;;;;;;;5.20;2.22;;;;;;;;;;5052971;28;20043;-72
2023/01/06 05:12:24;;;;;;;3.88;1.58;;;;;;;;;;5054701;28;20025;-66
2023/01/06 05:15:10;;;;;;;2.88;1.48;;;;;;;;;;5058893;28;20496;-67
2023/01/06 05:17:55;;;;;;;1.65;1.40;;;;;;;;;;5027895;28;20029;-68
2023/01/06 05:20:40;;;;;;;6.60;1.92;;;;;;;;;;5048965;28;20468;-67
2023/01/06 05:23:26;;;;;;;2.15;1.20;;;;;;;;;;5063765;28;20040;-67
2023/01/06 05:26:16;;;;;;;4.90;1.50;;;;;;;;;;5056080;28;20028;-88
2023/01/06 05:29:01;;;;;;;3.35;1.48;;;;;;;;;;5053622;28;20186;-90
2023/01/06 05:31:46;;;;;;;3.88;1.95;;;;;;;;;;5044000;28;20232;-90
2023/01/06 05:34:32;;;;;;;3.38;1.60;;;;;;;;;;5063089;28;20266;-89
2023/01/06 05:37:18;;;;;;;2.25;1.42;;;;;;;;;;5050681;28;20123;-88
2023/01/06 05:40:03;;;;;;;3.35;1.20;;;;;;;;;;5036953;28;20033;-87
2023/01/06 05:42:52;;;;;;;2.58;1.33;;;;;;;;;;5065659;28;20398;-88
2023/01/06 05:45:37;;;;;;;1.98;1.38;;;;;;;;;;5033227;28;20039;-77
2023/01/06 05:48:24;;;;;;;3.08;1.73;;;;;;;;;;5036105;28;20679;-88
2023/01/06 05:51:13;;;;;;;3.38;1.45;;;;;;;;;;5056166;28;20088;-91
2023/01/06 05:53:58;;;;;;;3.15;1.40;;;;;;;;;;5076101;28;20029;-90
2023/01/06 05:56:43;;;;;;;4.25;1.42;;;;;;;;;;5057057;28;20073;-89
2023/01/06 05:59:28;;;;;;;2.70;1.30;;;;;;;;;;5043099;28;20035;-90
2023/01/06 06:02:14;;;;;;;2.55;1.15;;;;;;;;;;5037623;28;20029;-88
2023/01/06 06:04:59;;;;;;;3.42;1.45;;;;;;;;;;5070337;28;20025;-78
2023/01/06 06:07:50;;;;;;;1.70;1.05;;;;;;;;;;5053615;28;20087;-74
2023/01/06 06:10:36;;;;;;;3.20;1.38;;;;;;;;;;5032797;28;20029;-73
2023/01/06 06:13:21;;;;;;;2.60;1.25;;;;;;;;;;5055284;28;20365;-73
2023/01/06 06:16:07;;;;;;;4.47;1.88;;;;;;;;;;5053085;28;20031;-73
2023/01/06 06:18:54;;;;;;;2.28;1.33;;;;;;;;;;5066051;28;20040;-72
2023/01/06 06:21:39;;;;;;;2.60;1.15;;;;;;;;;;5056556;28;20047;-68
2023/01/06 06:24:24;;;;;;;2.50;1.38;;;;;;;;;;5064350;28;20036;-73
2023/01/06 06:27:09;;;;;;;2.00;1.45;;;;;;;;;;5059837;28;20491;-73
2023/01/06 06:29:54;;;;;;;4.38;1.27;;;;;;;;;;5065698;28;20052;-73
2023/01/06 06:32:40;;;;;;;3.20;1.10;;;;;;;;;;5053580;28;20388;-73
2023/01/06 06:35:25;;;;;;;5.53;1.98;;;;;;;;;;5066595;28;20048;-71
2023/01/06 06:38:10;;;;;;;1.95;1.70;;;;;;;;;;5052828;28;20033;-73
2023/01/06 06:40:55;;;;;;;2.10;1.20;;;;;;;;;;5060769;28;20033;-74
2023/01/06 06:43:41;;;;;;;2.85;1.58;;;;;;;;;;5052539;28;20062;-72
2023/01/06 06:46:26;;;;;;;3.13;1.77;;;;;;;;;;5044558;28;20109;-75
2023/01/06 06:49:11;;;;;;;2.15;1.30;;;;;;;;;;5058128;28;20496;-72
2023/01/06 06:51:56;;;;;;;1.80;1.17;;;;;;;;;;5030490;28;20067;-73
2023/01/06 06:54:42;;;;;;;3.90;1.45;;;;;;;;;;5062600;28;20032;-72
2023/01/06 06:57:27;;;;;;;2.65;1.10;;;;;;;;;;5038088;28;20135;-73
2023/01/06 07:00:12;;;;;;;2.35;1.60;;;;;;;;;;5061324;28;20021;-73
2023/01/06 07:02:57;;;;;;;2.17;1.20;;;;;;;;;;5064358;28;20068;-76
2023/01/06 07:05:44;;;;;;;5.60;1.77;;;;;;;;;;5062908;28;20044;-79
2023/01/06 07:08:29;;;;;;;1.48;1.10;;;;;;;;;;5064164;28;20087;-78
2023/01/06 07:11:14;;;;;;;3.33;1.50;;;;;;;;;;5058337;28;20020;-78
2023/01/06 07:13:59;;;;;;;2.10;1.35;;;;;;;;;;5069939;28;20032;-77
2023/01/06 07:16:45;;;;;;;3.55;1.50;;;;;;;;;;5058856;28;20025;-77
2023/01/06 07:19:30;;;;;;;2.80;1.42;;;;;;;;;;5043365;28;20035;-67
2023/01/06 07:22:15;;;;;;;2.70;1.55;;;;;;;;;;5062400;28;20037;-68
2023/01/06 07:25:00;;;;;;;2.45;1.70;;;;;;;;;;5070087;28;20036;-67
2023/01/06 07:27:45;;;;;;;3.00;1.73;;;;;;;;;;5068091;28;20514;-68
2023/01/06 07:30:32;;;;;;;5.85;1.90;;;;;;;;;;5066343;28;20056;-67
2023/01/06 07:33:17;;;;;;;3.75;1.60;;;;;;;;;;5045495;28;20468;-67
2023/01/06 07:36:03;;;;;;;1.92;1.30;;;;;;;;;;5059500;28;20025;-68
2023/01/06 07:38:48;;;;;;;2.50;1.55;;;;;;;;;;5044291;28;20103;-72
2023/01/06 07:41:33;;;;;;;4.22;1.52;;;;;;;;;;5038962;28;20036;-72
2023/01/06 07:44:19;;;;;;;3.67;1.60;;;;;;;;;;5069661;28;20103;-72
2023/01/06 07:47:05;;;;;;;2.88;1.45;;;;;;;;;;5063473;28;20048;-71
2023/01/06 07:49:50;;;;;;;3.45;1.80;;;;;;;;;;5055744;28;20032;-74
2023/01/06 07:52:35;;;;;;;5.35;2.22;;;;;;;;;;5062041;28;20531;-72
2023/01/06 07:55:21;;;;;;;2.63;1.20;;;;;;;;;;5068920;28;20024;-77
2023/01/06 07:58:07;;;;;;;4.22;1.10;;;;;;;;;;5051376;28;20068;-70
2023/01/06 08:00:52;;;;;;;2.60;1.42;;;;;;;;;;5062579;28;20032;-69
2023/01/06 08:03:37;;;;;;;2.53;1.63;;;;;;;;;;5068938;28;20035;-69
2023/01/06 08:06:22;;;;;;;4.28;1.60;;;;;;;;;;5057587;28;20124;-70
2023/01/06 08:09:07;;;;;;;2.90;1.70;;;;;;;;;;5058102;28;20475;-69
2023/01/06 08:11:53;;;;;;;4.03;1.88;;;;;;;;;;5061393;28;20033;-76
2023/01/06 08:14:38;;;;;;;2.50;1.27;;;;;;;;;;5059359;28;20048;-72
2023/01/06 08:17:23;;;;;;;1.83;1.38;;;;;;;;;;5055097;28;20476;-71
2023/01/06 08:20:09;;;;;;;4.20;1.80;;;;;;;;;;5069320;28;20060;-73
2023/01/06 08:22:54;;;;;;;4.18;1.80;;;;;;;;;;5065857;28;20033;-72
2023/01/06 08:25:39;;;;;;;3.53;2.67;;;;;;;;;;5068361;28;20037;-73
2023/01/06 08:28:25;;;;;;;3.75;1.80;;;;;;;;;;5068909;28;20036;-72
2023/01/06 08:31:12;;;;;;;4.55;1.70;;;;;;;;;;5067832;28;20024;-69
2023/01/06 08:33:57;;;;;;;2.90;1.67;;;;;;;;;;5068603;28;20439;-76
2023/01/06 08:36:43;;;;;;;3.80;1.85;;;;;;;;;;5053622;28;20040;-76
2023/01/06 08:39:28;;;;;;;4.22;1.70;;;;;;;;;;5050309;28;20232;-75
2023/01/06 08:42:14;;;;;;;1.73;1.20;;;;;;;;;;5066329;28;20043;-74
2023/01/06 08:44:59;;;;;;;2.22;1.50;;;;;;;;;;5077158;28;20025;-78
2023/01/06 08:47:44;;;;;;;3.67;1.50;;;;;;;;;;5065576;28;20081;-75
2023/01/06 08:50:29;;;;;;;1.33;1.02;;;;;;;;;;5058528;28;20024;-67
2023/01/06 08:53:14;;;;;;;2.20;1.30;;;;;;;;;;5066061;28;20037;-71
2023/01/06 08:56:00;;;;;;;2.30;1.38;;;;;;;;;;5052117;28;20036;-73
2023/01/06 08:58:49;;;;;;;3.65;1.60;;;;;;;;;;5063920;28;20150;-73
2023/01/06 09:01:35;;;;;;;2.90;2.20;;;;;;;;;;5057266;28;20562;-74
2023/01/06 09:04:22;;;;;;;3.80;2.20;;;;;;;;;;5068215;28;20040;-74
2023/01/06 09:07:08;;;;;;;2.92;1.65;;;;;;;;;;5055980;28;20392;-80
2023/01/06 09:09:53;;;;;;;5.22;1.20;;;;;;;;;;5059675;28;20029;-71
2023/01/06 09:12:38;;;;;;;2.08;1.30;;;;;;;;;;5058450;28;20181;-70
2023/01/06 09:15:23;;;;;;;1.75;1.33;;;;;;;;;;5071333;28;20208;-69
2023/01/06 09:18:09;;;;;;;1.20;0.80;;;;;;;;;;5061064;28;20122;-71
2023/01/06 09:20:54;;;;;;;1.48;1.00;;;;;;;;;;5067016;28;20024;-72
2023/01/06 09:23:40;;;;;;;3.25;0.80;;;;;;;;;;5060441;28;20444;-70
2023/01/06 09:26:25;;;;;;;1.33;0.68;;;;;;;;;;5060932;28;20108;-70
2023/01/06 09:29:10;;;;;;;1.77;0.90;;;;;;;;;;5063589;28;20036;-74
2023/01/06 09:31:55;;;;;;;1.20;1.10;;;;;;;;;;5051954;28;20112;-74
2023/01/06 09:34:41;;;;;;;2.42;0.70;;;;;;;;;;5065476;28;20028;-75
2023/01/06 09:37:26;;;;;;;2.20;0.90;;;;;;;;;;5049634;28;20029;-74
2023/01/06 09:40:16;;;;;;;2.33;0.80;;;;;;;;;;5056019;28;20510;-74
2023/01/06 09:43:20;;;;;;;2.42;0.75;;;;;;;;;;5054760;28;20090;-73
2023/01/06 09:46:07;;;;;;;1.20;0.70;;;;;;;;;;5067775;28;20036;-69
2023/01/06 09:48:57;;;;;;;0.75;0.70;;;;;;;;;;5056149;28;20499;-76
2023/01/06 09:51:43;;;;;;;1.23;0.80;;;;;;;;;;5058318;28;20103;-76
2023/01/06 09:54:41;;;;;;;0.70;0.70;;;;;;;;;;5061674;28;20017;-77
2023/01/06 09:57:29;;;;;;;0.88;0.70;;;;;;;;;;5056832;28;20037;-77
2023/01/06 10:00:34;;;;;;;1.27;0.90;;;;;;;;;;5061544;28;20312;-76
2023/01/06 10:03:21;;;;;;;0.75;0.73;;;;;;;;;;5066027;28;20470;-73
2023/01/06 10:06:19;;;;;;;1.02;0.82;;;;;;;;;;5058341;28;20036;-77
2023/01/06 10:09:16;;;;;;;0.95;0.70;;;;;;;;;;5054400;28;20426;-76
2023/01/06 10:12:21;;;;;;;0.60;0.60;;;;;;;;;;5061551;28;20029;-76
2023/01/06 10:15:12;;;;;;;2.05;0.98;;;;;;;;;;5055275;28;20041;-77
2023/01/06 10:18:15;;;;;;;0.82;0.65;;;;;;;;;;5048418;28;20103;-77
2023/01/06 10:21:12;;;;;;;1.10;0.75;;;;;;;;;;5075185;28;20052;-75
2023/01/06 10:24:12;;;;;;;0.80;0.70;;;;;;;;;;5062527;28;20047;-78
2023/01/06 10:27:00;;;;;;;1.45;0.70;;;;;;;;;;5062076;28;20029;-79
2023/01/06 10:29:47;;;;;;;1.13;0.82;;;;;;;;;;5053836;28;20119;-78
2023/01/06 10:32:33;;;;;;;1.27;1.00;;;;;;;;;;5057427;28;20028;-76
2023/01/06 10:35:20;;;;;;;1.45;0.80;;;;;;;;;;5051242;28;20048;-76
2023/01/06 10:38:08;;;;;;;0.55;0.55;;;;;;;;;;5058067;28;20052;-77
2023/01/06 10:40:54;;;;;;;2.05;0.60;;;;;;;;;;5067065;28;20039;-76
2023/01/06 10:43:39;;;;;;;1.13;0.70;;;;;;;;;;5058725;28;20164;-88
2023/01/06 10:46:29;;;;;;;0.85;0.75;;;;;;;;;;5049004;28;20025;-86
2023/01/06 10:49:17;;;;;;;1.67;0.73;;;;;;;;;;5039998;28;20107;-88
2023/01/06 10:52:02;;;;;;;0.45;0.45;;;;;;;;;;5051409;28;20223;-87
2023/01/06 10:54:50;;;;;;;0.95;0.63;;;;;;;;;;5063033;28;20033;-87
2023/01/06 10:57:38;;;;;;;0.50;0.50;;;;;;;;;;5045718;28;20032;-77
2023/01/06 11:00:23;;;;;;;0.90;0.50;;;;;;;;;;5032951;28;20032;-75
2023/01/06 11:03:11;;;;;;;0.68;0.57;;;;;;;;;;5052097;28;20037;-77
2023/01/06 11:06:03;;;;;;;0.57;0.50;;;;;;;;;;5060067;28;20068;-78
2023/01/06 11:08:48;;;;;;;0.45;0.40;;;;;;;;;;5050421;28;20380;-77
2023/01/06 11:11:43;;;;;;;1.15;0.60;;;;;;;;;;5066963;28;20067;-76
2023/01/06 11:14:29;;;;;;;1.63;0.73;;;;;;;;;;5040644;28;20037;-77
2023/01/06 11:17:15;;;;;;;1.85;0.75;;;;;;;;;;5059296;28;20037;-68
2023/01/06 11:20:23;;;;;;;1.02;0.70;;;;;;;;;;5070246;28;20060;-77
2023/01/06 11:23:21;;;;;;;0.75;0.60;;;;;;;;;;5061105;28;20034;-76
2023/01/06 11:26:14;;;;;;;1.98;0.60;;;;;;;;;;5057445;28;20025;-76
2023/01/06 11:29:15;;;;;;;0.60;0.57;;;;;;;;;;5066339;28;20032;-78
2023/01/06 11:32:24;;;;;;;1.63;0.70;;;;;;;;;;5068875;28;20028;-77
2023/01/06 11:35:17;;;;;;;0.70;0.60;;;;;;;;;;5050365;28;20037;-72
2023/01/06 11:38:03;;;;;;;1.45;0.80;;;;;;;;;;5053942;28;20029;-75
2023/01/06 11:40:52;;;;;;;0.85;0.77;;;;;;;;;;5069834;28;20128;-74
2023/01/06 11:43:40;;;;;;;1.42;0.57;;;;;;;;;;5064590;28;20102;-73
2023/01/06 11:46:25;;;;;;;0.60;0.60;;;;;;;;;;5069599;28;20089;-73
2023/01/06 11:49:18;;;;;;;1.25;0.70;;;;;;;;;;5052136;28;20044;-73
2023/01/06 11:52:06;;;;;;;0.82;0.70;;;;;;;;;;5056313;28;20025;-74
2023/01/06 11:55:06;;;;;;;0.65;0.60;;;;;;;;;;5067402;28;20032;-74
2023/01/06 11:58:07;;;;;;;0.75;0.63;;;;;;;;;;5067220;28;20036;-78
2023/01/06 12:00:56;;;;;;;1.55;0.60;;;;;;;;;;5063460;28;20043;-77
2023/01/06 12:03:46;;;;;;;0.60;0.52;;;;;;;;;;5062341;28;20036;-76
2023/01/06 12:06:35;;;;;;;0.60;0.60;;;;;;;;;;5058636;28;20534;-77
2023/01/06 12:09:27;;;;;;;1.45;0.65;;;;;;;;;;5047299;28;20738;-76
2023/01/06 12:12:19;;;;;;;0.75;0.70;;;;;;;;;;5068404;28;20471;-78
2023/01/06 12:15:10;;;;;;;1.00;0.70;;;;;;;;;;5061389;28;20127;-90
2023/01/06 12:18:09;;;;;;;1.05;0.88;;;;;;;;;;5063804;28;20024;-91
2023/01/06 12:20:54;;;;;;;;;;;;;;;;;;5039716;28;20021;-89
2023/01/06 12:23:41;;;;;;;0.95;0.70;;;;;;;;;;5050045;28;20287;-90
2023/01/06 12:26:27;;;;;;;0.50;0.50;;;;;;;;;;5036212;28;20392;-92
2023/01/06 12:29:18;;;;;;;1.88;0.80;;;;;;;;;;5057092;28;20036;-89
2023/01/06 12:32:09;;;;;;;0.55;0.55;;;;;;;;;;5049627;28;20037;-88
2023/01/06 12:34:57;;;;;;;1.48;0.85;;;;;;;;;;5036958;28;20387;-87
2023/01/06 12:37:47;;;;;;;0.75;0.70;;;;;;;;;;5043896;28;20025;-89
2023/01/06 12:40:43;;;;;;;1.08;0.90;;;;;;;;;;5060360;28;20036;-90
2023/01/06 12:43:29;;;;;;;1.25;0.90;;;;;;;;;;5058195;28;20059;-90
2023/01/06 12:46:18;;;;;;;1.38;1.13;;;;;;;;;;5050646;28;20025;-87
2023/01/06 12:49:29;;;;;;;1.42;0.93;;;;;;;;;;5054620;28;20484;-70
2023/01/06 12:52:27;;;;;;;0.68;0.68;;;;;;;;;;5048666;28;20066;-76
2023/01/06 12:55:17;;;;;;;1.67;0.75;;;;;;;;;;5036920;28;20043;-76
2023/01/06 12:58:02;;;;;;;2.13;1.00;;;;;;;;;;5064979;28;20029;-76
2023/01/06 13:00:52;;;;;;;1.08;0.75;;;;;;;;;;5070600;28;20040;-78
2023/01/06 13:03:40;;;;;;;0.88;0.80;;;;;;;;;;5064448;28;20107;-76
2023/01/06 13:06:39;;;;;;;2.38;0.90;;;;;;;;;;5058298;28;20098;-70
2023/01/06 13:09:35;;;;;;;2.00;0.98;;;;;;;;;;5052472;28;20036;-69
2023/01/06 13:12:59;;;;;;;0.60;0.60;;;;;;;;;;5068120;28;20028;-70
2023/01/06 13:15:44;;;;;;;0.95;0.70;;;;;;;;;;5020548;28;20037;-69
2023/01/06 13:18:29;;;;;;;0.60;0.60;;;;;;;;;;5013381;28;20484;-72
2023/01/06 13:21:17;;;;;;;0.90;0.73;;;;;;;;;;4999307;28;20128;-72
2023/01/06 13:24:05;;;;;;;2.10;1.10;;;;;;;;;;5008049;28;20322;-69
2023/01/06 13:27:03;;;;;;;2.42;1.40;;;;;;;;;;5002011;28;20131;-76
2023/01/06 13:30:06;;;;;;;2.83;1.85;;;;;;;;;;5012893;28;20385;-78
2023/01/06 13:33:00;;;;;;;2.05;1.35;;;;;;;;;;5003278;28;20040;-80
2023/01/06 13:36:04;;;;;;;4.88;2.13;;;;;;;;;;4998418;28;20046;-80
2023/01/06 13:39:08;;;;;;;6.63;3.13;;;;;;;;;;5015156;28;20041;-79
2023/01/06 13:41:54;;;;;;;6.80;2.80;;;;;;;;;;4992593;28;20076;-77
2023/01/06 13:44:40;;;;;;;7.40;2.83;;;;;;;;;;5020962;28;20074;-77
2023/01/06 13:47:25;;;;;;;8.20;2.72;;;;;;;;;;5059367;28;20442;-89
2023/01/06 13:50:12;;;;;;;5.13;2.72;;;;;;;;;;5049042;28;20117;-88
2023/01/06 13:52:57;;;;;;;7.68;3.05;;;;;;;;;;5061686;28;20468;-89
2023/01/06 13:55:42;;;;;;;6.25;2.90;;;;;;;;;;5034009;28;20032;-90
2023/01/06 13:58:29;;;;;;;4.78;2.63;;;;;;;;;;5047540;28;20032;-89
2023/01/06 14:01:17;;;;;;;3.88;1.75;;;;;;;;;;5046981;28;20479;-88
2023/01/06 14:04:22;;;;;;;2.53;1.35;;;;;;;;;;5053907;28;20042;-78
2023/01/06 14:07:08;;;;;;;2.08;1.23;;;;;;;;;;5034643;28;20076;-70
2023/01/06 14:09:53;;;;;;;2.78;1.48;;;;;;;;;;5056127;28;20062;-71
2023/01/06 14:12:38;;;;;;;1.33;1.02;;;;;;;;;;5058420;28;20103;-69
2023/01/06 14:15:28;;;;;;;2.15;1.13;;;;;;;;;;5061571;28;20138;-70
2023/01/06 14:18:27;;;;;;;1.42;1.00;;;;;;;;;;5055091;28;20040;-69
2023/01/06 14:21:12;;;;;;;2.17;1.30;;;;;;;;;;5026000;28;20045;-75
2023/01/06 14:24:01;;;;;;;3.28;1.63;;;;;;;;;;5057928;28;20087;-76
2023/01/06 14:27:07;;;;;;;1.67;1.20;;;;;;;;;;5057326;28;20124;-75
2023/01/06 14:30:15;;;;;;;1.13;0.93;;;;;;;;;;5054694;28;20025;-75
2023/01/06 14:33:06;;;;;;;2.47;1.58;;;;;;;;;;5053255;28;20040;-76
2023/01/06 14:35:58;;;;;;;3.78;1.75;;;;;;;;;;5057146;28;20118;-76
2023/01/06 14:38:48;;;;;;;1.15;1.00;;;;;;;;;;5056256;28;20035;-68
2023/01/06 14:41:43;;;;;;;1.35;1.00;;;;;;;;;;5067017;28;20033;-90
2023/01/06 14:44:31;;;;;;;1.35;1.08;;;;;;;;;;5050240;28;20045;-73
2023/01/06 14:47:30;;;;;;;1.60;1.17;;;;;;;;;;5066072;28;20365;-72
2023/01/06 14:50:24;;;;;;;1.92;0.98;;;;;;;;;;5047481;28;20029;-73
2023/01/06 14:53:25;;;;;;;4.45;1.48;;;;;;;;;;5067917;28;20036;-74
2023/01/06 14:56:16;;;;;;;2.33;1.30;;;;;;;;;;5059414;28;20064;-74
2023/01/06 14:59:11;;;;;;;0.90;0.90;;;;;;;;;;5052697;28;20117;-74
2023/01/06 15:02:01;;;;;;;0.95;0.77;;;;;;;;;;5070356;28;20071;-73
2023/01/06 15:04:46;;;;;;;;;;;;;;;;;;5060507;28;20039;-73
2023/01/06 15:07:31;;;;;;;0.70;0.70;;;;;;;;;;5060274;28;20321;-72
2023/01/06 15:10:20;;;;;;;0.63;0.57;;;;;;;;;;5062646;28;20074;-73
2023/01/06 15:13:34;;;;;;;1.33;0.82;;;;;;;;;;5070329;28;20399;-72
2023/01/06 15:16:25;;;;;;;1.58;1.15;;;;;;;;;;5057030;28;20041;-72
2023/01/06 15:19:13;;;;;;;2.17;0.80;;;;;;;;;;5068223;28;20387;-76
2023/01/06 15:21:59;;;;;;;0.57;0.52;;;;;;;;;;5067793;28;20523;-78
2023/01/06 15:24:45;;;;;;;1.35;1.00;;;;;;;;;;5047507;28;20341;-75
2023/01/06 15:27:30;;;;;;;1.73;1.00;;;;;;;;;;5070193;28;20034;-76
2023/01/06 15:30:17;;;;;;;2.17;0.95;;;;;;;;;;5066927;28;20064;-76
2023/01/06 15:33:02;;;;;;;1.33;1.00;;;;;;;;;;5070215;28;20033;-75
2023/01/06 15:35:48;;;;;;;1.15;0.85;;;;;;;;;;5055014;28;20423;-90
2023/01/06 15:38:35;;;;;;;1.35;0.80;;;;;;;;;;5039333;28;20058;-66
2023/01/06 15:41:33;;;;;;;5.05;0.70;;;;;;;;;;5068548;28;20067;-67
2023/01/06 15:44:20;;;;;;;2.10;0.70;;;;;;;;;;5059022;28;20403;-68
2023/01/06 15:47:05;;;;;;;5.93;0.98;;;;;;;;;;5055862;28;20109;-67
2023/01/06 15:49:52;;;;;;;0.90;0.70;;;;;;;;;;5055509;28;20372;-67
2023/01/06 15:52:42;;;;;;;0.95;0.80;;;;;;;;;;5062934;28;20086;-77
2023/01/06 15:55:33;;;;;;;1.75;1.40;;;;;;;;;;5055300;28;20033;-76
2023/01/06 15:58:23;;;;;;;1.70;1.00;;;;;;;;;;5053378;28;20028;-75
2023/01/06 16:01:15;;;;;;;2.88;1.00;;;;;;;;;;5056466;28;20025;-74
2023/01/06 16:04:00;;;;;;;2.42;1.17;;;;;;;;;;5067713;28;20123;-73
2023/01/06 16:06:46;;;;;;;1.73;1.15;;;;;;;;;;5055320;28;20074;-74
2023/01/06 16:09:36;;;;;;;1.50;1.38;;;;;;;;;;5058865;28;20017;-75
2023/01/06 16:12:21;;;;;;;1.30;1.00;;;;;;;;;;5074413;28;20258;-68
2023/01/06 16:15:25;;;;;;;2.38;1.40;;;;;;;;;;5056679;28;20033;-68
2023/01/06 16:18:12;;;;;;;1.90;1.08;;;;;;;;;;5048029;28;20107;-69
2023/01/06 16:20:59;;;;;;;1.83;1.02;;;;;;;;;;5055950;28;20125;-71
2023/01/06 16:23:52;;;;;;;3.22;1.10;;;;;;;;;;5066088;28;20033;-69
2023/01/06 16:26:43;;;;;;;3.38;0.90;;;;;;;;;;5047032;28;20043;-67
2023/01/06 16:29:28;;;;;;;1.08;0.82;;;;;;;;;;5064095;28;20025;-77
2023/01/06 16:32:18;;;;;;;1.75;1.02;;;;;;;;;;5061814;28;20055;-66
2023/01/06 16:35:09;;;;;;;2.78;1.58;;;;;;;;;;5055910;28;20103;-85
2023/01/06 16:37:54;;;;;;;4.97;1.90;;;;;;;;;;5058193;28;20017;-86
2023/01/06 16:40:40;;;;;;;3.67;2.20;;;;;;;;;;5050295;28;20029;-86
2023/01/06 16:43:25;;;;;;;2.70;1.90;;;;;;;;;;5055146;28;20331;-85
2023/01/06 16:46:16;;;;;;;2.22;1.10;;;;;;;;;;5056021;28;20075;-89
2023/01/06 16:49:04;;;;;;;2.28;1.55;;;;;;;;;;5058089;28;20039;-66
2023/01/06 16:51:50;;;;;;;2.15;1.10;;;;;;;;;;5052167;28;20020;-75
2023/01/06 16:54:35;;;;;;;1.90;1.10;;;;;;;;;;5065509;28;20130;-73